createdAt,value
2023-02-03T00:00:39.810Z,7.89
2023-02-03T00:03:07.204Z,7.90
2023-02-03T00:05:35.003Z,7.92
2023-02-03T00:08:03.035Z,7.90
2023-02-03T00:10:29.708Z,7.89
2023-02-03T00:12:59.119Z,7.91
2023-02-03T00:15:25.640Z,7.91
2023-02-03T00:17:52.476Z,7.92
2023-02-03T00:20:19.128Z,7.91
2023-02-03T00:22:45.625Z,7.88
2023-02-03T00:25:12.189Z,7.89
2023-02-03T00:27:38.863Z,7.87
2023-02-03T00:30:05.947Z,7.88
2023-02-03T00:32:32.587Z,7.86
2023-02-03T00:34:59.108Z,7.92
2023-02-03T00:37:25.552Z,7.94
2023-02-03T00:39:52.197Z,7.90
2023-02-03T00:42:18.642Z,7.90
2023-02-03T00:44:45.491Z,7.92
2023-02-03T00:47:12.171Z,7.92
2023-02-03T00:49:38.679Z,7.94
2023-02-03T00:52:05.923Z,7.94
2023-02-03T00:54:33.720Z,7.93
2023-02-03T00:57:00.419Z,7.97
2023-02-03T00:59:26.938Z,7.99
2023-02-03T01:01:53.646Z,7.96
2023-02-03T01:04:20.175Z,7.96
2023-02-03T01:06:47.389Z,7.95
2023-02-03T01:09:13.844Z,7.96
2023-02-03T01:11:40.536Z,7.94
2023-02-03T01:14:07.117Z,7.93
2023-02-03T01:16:36.420Z,7.97
2023-02-03T01:19:03.109Z,7.98
2023-02-03T01:21:30.474Z,7.95
2023-02-03T01:23:58.389Z,7.93
2023-02-03T01:26:24.970Z,7.92
2023-02-03T01:28:56.488Z,7.95
2023-02-03T01:31:25.600Z,7.94
2023-02-03T01:33:54.151Z,7.94
2023-02-03T01:36:22.299Z,7.94
2023-02-03T01:38:49.279Z,7.95
2023-02-03T01:41:19.355Z,7.94
2023-02-03T01:43:49.880Z,7.94
2023-02-03T01:46:35.162Z,7.93
2023-02-03T01:49:14.007Z,7.95
2023-02-03T01:51:43.171Z,7.98
2023-02-03T01:54:15.436Z,7.96
2023-02-03T01:56:45.995Z,7.96
2023-02-03T01:59:16.103Z,7.97
2023-02-03T02:01:42.948Z,7.95
2023-02-03T02:04:10.976Z,7.97
2023-02-03T02:06:37.855Z,7.96
2023-02-03T02:09:04.834Z,7.96
2023-02-03T02:11:31.487Z,7.99
2023-02-03T02:14:02.074Z,7.99
2023-02-03T02:16:56.804Z,8.02
2023-02-03T02:20:17.152Z,8.03
2023-02-03T02:23:05.779Z,8.04
2023-02-03T02:25:55.967Z,8.05
2023-02-03T02:28:44.298Z,8.08
2023-02-03T02:31:29.206Z,8.06
2023-02-03T02:34:34.449Z,8.05
2023-02-03T02:37:26.542Z,8.03
2023-02-03T02:40:00.688Z,8.04
2023-02-03T02:42:42.986Z,8.03
2023-02-03T02:45:17.338Z,8.02
2023-02-03T02:47:45.068Z,8.01
2023-02-03T02:50:23.422Z,8.01
2023-02-03T02:52:52.848Z,8.04
2023-02-03T02:55:27.761Z,8.03
2023-02-03T02:57:58.319Z,7.99
2023-02-03T03:00:25.380Z,8.04
2023-02-03T03:02:52.225Z,8.06
2023-02-03T03:05:19.453Z,8.03
2023-02-03T03:08:09.518Z,8.04
2023-02-03T03:10:37.937Z,8.06
2023-02-03T03:13:12.834Z,8.07
2023-02-03T03:15:47.256Z,8.06
2023-02-03T03:18:20.870Z,8.06
2023-02-03T03:20:50.896Z,8.07
2023-02-03T03:23:22.908Z,8.10
2023-02-03T03:25:54.821Z,8.12
2023-02-03T03:28:28.070Z,8.13
2023-02-03T03:30:54.758Z,8.13
2023-02-03T03:33:22.847Z,8.14
2023-02-03T03:35:54.191Z,8.14
2023-02-03T03:38:31.957Z,8.12
2023-02-03T03:41:27.653Z,8.14
2023-02-03T03:43:59.027Z,8.15
2023-02-03T03:46:33.690Z,8.17
2023-02-03T03:49:03.751Z,8.18
2023-02-03T03:51:40.075Z,8.20
2023-02-03T03:54:09.788Z,8.21
2023-02-03T03:56:48.352Z,8.22
2023-02-03T03:59:20.735Z,8.21
2023-02-03T04:01:49.210Z,8.19
2023-02-03T04:04:16.799Z,8.19
2023-02-03T04:06:43.513Z,8.21
2023-02-03T04:09:11.881Z,8.22
2023-02-03T04:11:56.825Z,8.21
2023-02-03T04:14:23.548Z,8.24
2023-02-03T04:16:50.017Z,8.24
2023-02-03T04:19:16.448Z,8.25
2023-02-03T04:21:42.843Z,8.26
2023-02-03T04:24:09.351Z,8.26
2023-02-03T04:26:35.856Z,8.26
2023-02-03T04:29:02.785Z,8.28
2023-02-03T04:31:30.041Z,8.29
2023-02-03T04:33:56.604Z,8.28
2023-02-03T04:36:23.490Z,8.33
2023-02-03T04:38:50.257Z,8.36
2023-02-03T04:41:16.759Z,8.41
2023-02-03T04:43:43.705Z,8.39
2023-02-03T04:46:10.553Z,8.39
2023-02-03T04:48:37.252Z,8.35
2023-02-03T04:51:06.437Z,8.37
2023-02-03T04:53:33.278Z,8.38
2023-02-03T04:55:59.809Z,8.44
2023-02-03T04:58:27.007Z,8.43
2023-02-03T05:00:54.763Z,8.42
2023-02-03T05:03:23.501Z,8.41
2023-02-03T05:05:51.402Z,8.40
2023-02-03T05:08:18.015Z,8.43
2023-02-03T05:10:45.263Z,8.42
2023-02-03T05:13:11.976Z,8.43
2023-02-03T05:15:38.501Z,8.45
2023-02-03T05:18:04.980Z,8.45
2023-02-03T05:20:31.505Z,8.48
2023-02-03T05:22:58.789Z,8.49
2023-02-03T05:25:25.300Z,8.52
2023-02-03T05:27:51.827Z,8.54
2023-02-03T05:30:18.563Z,8.55
2023-02-03T05:32:45.142Z,8.59
2023-02-03T05:35:11.584Z,8.58
2023-02-03T05:37:38.190Z,8.60
2023-02-03T05:40:23.821Z,8.59
2023-02-03T05:42:50.671Z,8.59
2023-02-03T05:45:17.406Z,8.60
2023-02-03T05:47:43.934Z,8.61
2023-02-03T05:50:10.832Z,8.59
2023-02-03T05:52:37.328Z,8.60
2023-02-03T05:55:04.472Z,8.56
2023-02-03T05:57:32.366Z,8.57
2023-02-03T05:59:59.180Z,8.57
2023-02-03T06:02:25.796Z,8.58
2023-02-03T06:04:52.326Z,8.58
2023-02-03T06:07:18.798Z,8.57
2023-02-03T06:09:45.260Z,8.56
2023-02-03T06:12:11.820Z,8.56
2023-02-03T06:14:38.332Z,8.55
2023-02-03T06:17:04.829Z,8.58
2023-02-03T06:19:31.394Z,8.58
2023-02-03T06:21:57.842Z,8.57
2023-02-03T06:24:24.451Z,8.58
2023-02-03T06:26:50.913Z,8.62
2023-02-03T06:29:18.241Z,8.58
2023-02-03T06:31:44.901Z,8.59
2023-02-03T06:34:11.592Z,8.56
2023-02-03T06:36:38.123Z,8.57
2023-02-03T06:39:04.846Z,8.56
2023-02-03T06:41:32.847Z,8.56
2023-02-03T06:43:59.371Z,8.55
2023-02-03T06:46:29.834Z,8.54
2023-02-03T06:48:56.698Z,8.54
2023-02-03T06:51:24.900Z,8.55
2023-02-03T06:53:51.474Z,8.53
2023-02-03T06:56:18.017Z,8.54
2023-02-03T06:58:44.554Z,8.52
2023-02-03T07:01:11.134Z,8.53
2023-02-03T07:03:37.697Z,8.53
2023-02-03T07:06:04.458Z,8.52
2023-02-03T07:08:30.926Z,8.52
2023-02-03T07:10:57.426Z,8.54
2023-02-03T07:13:23.934Z,8.53
2023-02-03T07:15:50.715Z,8.55
2023-02-03T07:18:43.497Z,8.56
2023-02-03T07:21:06.497Z,8.55
2023-02-03T07:23:33.338Z,8.54
2023-02-03T07:26:04.852Z,8.52
2023-02-03T07:28:35.908Z,8.53
2023-02-03T07:31:08.285Z,8.52
2023-02-03T07:33:34.927Z,8.52
2023-02-03T07:36:01.507Z,8.52
2023-02-03T07:38:28.342Z,8.52
2023-02-03T07:40:55.546Z,8.54
2023-02-03T07:43:22.514Z,8.54
2023-02-03T07:45:48.977Z,8.54
2023-02-03T07:48:15.578Z,8.52
2023-02-03T07:50:42.674Z,8.54
2023-02-03T07:53:09.321Z,8.55
2023-02-03T07:55:38.626Z,8.56
2023-02-03T07:58:05.103Z,8.56
2023-02-03T08:00:31.690Z,8.56
2023-02-03T08:02:58.320Z,8.57
2023-02-03T08:05:25.542Z,8.59
2023-02-03T08:07:52.013Z,8.58
2023-02-03T08:10:18.620Z,8.60
2023-02-03T08:12:46.703Z,8.62
2023-02-03T08:15:14.354Z,8.63
2023-02-03T08:17:42.026Z,8.63
2023-02-03T08:20:10.000Z,8.65
2023-02-03T08:22:36.495Z,8.67
2023-02-03T08:25:03.954Z,8.69
2023-02-03T08:27:31.831Z,8.70
2023-02-03T08:29:59.094Z,8.71
2023-02-03T08:32:26.707Z,8.73
2023-02-03T08:34:54.050Z,8.74
2023-02-03T08:37:26.651Z,8.74
2023-02-03T08:39:54.212Z,8.74
2023-02-03T08:42:20.980Z,8.74
2023-02-03T08:44:49.357Z,8.76
2023-02-03T08:47:16.940Z,8.79
2023-02-03T08:49:43.643Z,8.82
2023-02-03T08:52:12.310Z,8.83
2023-02-03T08:54:39.700Z,8.86
2023-02-03T08:57:07.248Z,8.87
2023-02-03T08:59:37.176Z,8.89
2023-02-03T09:02:04.893Z,8.92
2023-02-03T09:04:33.405Z,8.95
2023-02-03T09:07:03.248Z,8.98
2023-02-03T09:09:31.131Z,9.01
2023-02-03T09:12:02.160Z,9.03
2023-02-03T09:14:33.299Z,9.06
2023-02-03T09:17:03.302Z,9.09
2023-02-03T09:19:30.720Z,9.10
2023-02-03T09:21:57.881Z,9.11
2023-02-03T09:24:25.163Z,9.13
2023-02-03T09:26:52.558Z,9.15
2023-02-03T09:29:19.917Z,9.18
2023-02-03T09:31:49.401Z,9.18
2023-02-03T09:34:16.149Z,9.17
2023-02-03T09:36:43.216Z,9.19
2023-02-03T09:39:09.979Z,9.20
2023-02-03T09:42:06.419Z,9.21
2023-02-03T09:44:55.891Z,9.22
2023-02-03T09:47:26.855Z,9.21
2023-02-03T09:50:01.335Z,9.23
2023-02-03T09:52:46.247Z,9.25
2023-02-03T09:55:36.612Z,9.26
2023-02-03T09:58:33.165Z,9.26
2023-02-03T10:01:03.007Z,9.28
2023-02-03T10:03:39.869Z,9.29
2023-02-03T10:06:28.168Z,9.33
2023-02-03T10:08:57.873Z,9.34
2023-02-03T10:11:58.859Z,9.35
2023-02-03T10:15:04.563Z,9.37
2023-02-03T10:17:36.827Z,9.37
2023-02-03T10:20:09.404Z,9.40
2023-02-03T10:23:14.174Z,9.42
2023-02-03T10:25:57.403Z,9.45
2023-02-03T10:28:30.143Z,9.47
2023-02-03T10:30:59.744Z,9.48
2023-02-03T10:33:31.533Z,9.49
2023-02-03T10:36:01.631Z,9.50
2023-02-03T10:38:28.096Z,9.50
2023-02-03T10:40:54.730Z,9.49
2023-02-03T10:43:39.770Z,9.53
2023-02-03T10:46:06.432Z,9.56
2023-02-03T10:48:33.055Z,9.56
2023-02-03T10:51:01.125Z,9.57
2023-02-03T10:53:36.011Z,9.57
2023-02-03T10:56:15.452Z,9.58
2023-02-03T10:59:02.936Z,9.67
2023-02-03T11:01:45.266Z,9.72
2023-02-03T11:04:28.462Z,9.74
2023-02-03T11:06:58.153Z,9.71
2023-02-03T11:09:43.069Z,9.68
2023-02-03T11:12:12.315Z,9.65
2023-02-03T11:14:44.235Z,9.65
2023-02-03T11:17:22.844Z,9.61
2023-02-03T11:19:51.829Z,9.62
2023-02-03T11:22:38.716Z,9.60
2023-02-03T11:25:17.874Z,9.58
2023-02-03T11:27:44.956Z,9.56
2023-02-03T11:30:18.714Z,9.54
2023-02-03T11:32:47.793Z,9.54
2023-02-03T11:35:28.102Z,9.54
2023-02-03T11:37:56.842Z,9.55
2023-02-03T11:40:28.432Z,9.58
2023-02-03T11:42:55.093Z,9.60
2023-02-03T11:45:30.162Z,9.58
2023-02-03T11:47:58.575Z,9.58
2023-02-03T11:50:39.404Z,9.56
2023-02-03T11:53:24.071Z,9.56
2023-02-03T11:56:06.234Z,9.58
2023-02-03T11:58:44.766Z,9.55
2023-02-03T12:01:39.108Z,9.54
2023-02-03T12:04:42.943Z,9.57
2023-02-03T12:07:18.574Z,9.59
2023-02-03T12:10:02.597Z,9.58
2023-02-03T12:12:52.817Z,9.55
2023-02-03T12:15:50.051Z,9.51
2023-02-03T12:18:49.170Z,9.49
2023-02-03T12:21:40.706Z,9.48
2023-02-03T12:24:35.903Z,9.47
2023-02-03T12:27:18.354Z,9.42
2023-02-03T12:29:55.331Z,9.35
2023-02-03T12:32:32.134Z,9.35
2023-02-03T12:35:23.989Z,9.32
2023-02-03T12:38:01.075Z,9.29
2023-02-03T12:40:43.185Z,9.27
2023-02-03T12:43:22.016Z,9.23
2023-02-03T12:46:17.076Z,9.19
2023-02-03T12:48:55.557Z,9.16
2023-02-03T12:51:46.765Z,9.12
2023-02-03T12:54:55.127Z,9.10
2023-02-03T12:57:25.230Z,9.06
2023-02-03T13:00:04.391Z,9.06
2023-02-03T13:02:37.459Z,9.10
2023-02-03T13:05:23.552Z,9.09
2023-02-03T13:08:09.541Z,9.11
2023-02-03T13:10:45.173Z,9.15
2023-02-03T13:13:16.431Z,9.17
2023-02-03T13:15:50.556Z,9.22
2023-02-03T13:18:36.877Z,9.23
2023-02-03T13:21:03.885Z,9.25
2023-02-03T13:23:30.606Z,9.26
2023-02-03T13:26:37.314Z,9.28
2023-02-03T13:29:39.394Z,9.28
2023-02-03T13:32:14.977Z,9.26
2023-02-03T13:34:53.723Z,9.28
2023-02-03T13:37:45.490Z,9.28
2023-02-03T13:40:15.325Z,9.31
2023-02-03T13:42:47.845Z,9.32
2023-02-03T13:45:26.222Z,9.32
2023-02-03T13:47:57.027Z,9.32
2023-02-03T13:50:30.459Z,9.32
2023-02-03T13:53:02.295Z,9.31
2023-02-03T13:55:54.703Z,9.31
2023-02-03T13:58:23.782Z,9.30
2023-02-03T14:00:50.362Z,9.31
2023-02-03T14:03:24.189Z,9.34
2023-02-03T14:05:54.702Z,9.31
2023-02-03T14:08:30.412Z,9.29
2023-02-03T14:11:34.567Z,9.31
2023-02-03T14:14:07.230Z,9.30
2023-02-03T14:16:52.066Z,9.30
2023-02-03T14:19:29.870Z,9.29
2023-02-03T14:22:07.717Z,9.27
2023-02-03T14:24:47.080Z,9.28
2023-02-03T14:27:31.929Z,9.27
2023-02-03T14:30:09.349Z,9.27
2023-02-03T14:32:54.483Z,9.23
2023-02-03T14:35:40.778Z,9.22
2023-02-03T14:38:11.289Z,9.21
2023-02-03T14:40:58.347Z,9.19
2023-02-03T14:43:50.601Z,9.16
2023-02-03T14:46:35.465Z,9.13
2023-02-03T14:49:34.196Z,9.11
2023-02-03T14:52:15.336Z,9.10
2023-02-03T14:55:16.416Z,9.08
2023-02-03T14:57:49.071Z,9.07
2023-02-03T15:00:22.414Z,9.07
2023-02-03T15:03:10.237Z,9.07
2023-02-03T15:05:48.821Z,9.06
2023-02-03T15:08:41.844Z,9.03
2023-02-03T15:11:16.951Z,9.01
2023-02-03T15:13:43.493Z,8.96
2023-02-03T15:16:18.354Z,8.94
2023-02-03T15:18:45.595Z,8.92
2023-02-03T15:21:18.514Z,8.93
2023-02-03T15:23:51.877Z,8.90
2023-02-03T15:26:24.410Z,8.88
2023-02-03T15:28:59.438Z,8.86
2023-02-03T15:31:41.850Z,8.85
2023-02-03T15:34:23.410Z,8.82
2023-02-03T15:36:54.530Z,8.82
2023-02-03T15:39:39.692Z,8.82
2023-02-03T15:42:14.057Z,8.80
2023-02-03T15:44:57.006Z,8.77
2023-02-03T15:47:29.699Z,8.74
2023-02-03T15:50:04.672Z,8.73
2023-02-03T15:52:34.483Z,8.68
2023-02-03T15:55:17.773Z,8.64
2023-02-03T15:57:47.484Z,8.60
2023-02-03T16:00:40.482Z,8.58
2023-02-03T16:03:19.625Z,8.54
2023-02-03T16:05:49.574Z,8.54
2023-02-03T16:08:46.186Z,8.53
2023-02-03T16:11:21.925Z,8.49
2023-02-03T16:13:48.598Z,8.47
2023-02-03T16:16:26.606Z,8.42
2023-02-03T16:19:03.822Z,8.42
2023-02-03T16:21:33.999Z,8.38
2023-02-03T16:24:01.051Z,8.35
2023-02-03T16:26:30.621Z,8.33
2023-02-03T16:29:28.759Z,8.30
2023-02-03T16:32:14.614Z,8.27
2023-02-03T16:35:00.010Z,8.26
2023-02-03T16:38:01.292Z,8.25
2023-02-03T16:40:46.389Z,8.23
2023-02-03T16:43:33.163Z,8.21
2023-02-03T16:46:18.995Z,8.23
2023-02-03T16:49:04.686Z,8.21
2023-02-03T16:51:41.800Z,8.18
2023-02-03T16:54:13.790Z,8.19
2023-02-03T16:56:41.036Z,8.18
2023-02-03T16:59:07.647Z,8.15
2023-02-03T17:01:34.280Z,8.13
2023-02-03T17:04:00.905Z,8.12
2023-02-03T17:06:27.961Z,8.10
2023-02-03T17:08:55.119Z,8.11
2023-02-03T17:11:23.508Z,8.11
2023-02-03T17:13:50.689Z,8.09
2023-02-03T17:16:23.035Z,8.10
2023-02-03T17:18:49.977Z,8.06
2023-02-03T17:21:21.785Z,8.06
2023-02-03T17:23:48.244Z,8.06
2023-02-03T17:26:17.870Z,8.07
2023-02-03T17:28:45.058Z,8.04
2023-02-03T17:31:19.103Z,8.01
2023-02-03T17:33:49.726Z,7.99
2023-02-03T17:36:18.543Z,7.97
2023-02-03T17:55:58.488Z,7.79
2023-02-03T17:58:28.953Z,7.75
2023-02-03T18:01:00.087Z,7.75
2023-02-03T18:03:29.028Z,7.72
2023-02-03T18:06:09.694Z,7.70
2023-02-03T18:08:37.749Z,7.70
2023-02-03T18:11:08.111Z,7.68
2023-02-03T18:13:39.138Z,7.68
2023-02-03T18:16:17.583Z,7.65
2023-02-03T18:18:45.039Z,7.62
2023-02-03T18:21:15.728Z,7.61
2023-02-03T18:23:45.390Z,7.60
2023-02-03T18:26:13.696Z,7.63
2023-02-03T18:28:40.973Z,7.64
2023-02-03T18:31:17.561Z,7.63
2023-02-03T18:33:47.575Z,7.64
2023-02-03T18:36:16.843Z,7.65
2023-02-03T18:38:45.638Z,7.66
2023-02-03T18:41:21.440Z,7.67
2023-02-03T18:43:49.332Z,7.68
2023-02-03T18:46:22.204Z,7.69
2023-02-03T18:48:49.322Z,7.68
2023-02-03T18:51:18.332Z,7.70
2023-02-03T18:53:46.726Z,7.72
2023-02-03T18:56:16.307Z,7.72
2023-02-03T18:58:43.335Z,7.72
2023-02-03T19:01:10.861Z,7.73
2023-02-03T19:03:38.841Z,7.72
2023-02-03T19:06:09.701Z,7.71
2023-02-03T19:08:36.351Z,7.70
2023-02-03T19:11:03.625Z,7.70
2023-02-03T19:13:30.217Z,7.70
2023-02-03T19:15:56.814Z,7.70
2023-02-03T19:18:23.452Z,7.70
2023-02-03T19:20:50.186Z,7.69
2023-02-03T19:23:16.859Z,7.68
2023-02-03T19:26:09.739Z,7.66
2023-02-03T19:28:36.760Z,7.66
2023-02-03T19:31:14.036Z,7.64
2023-02-03T19:33:41.404Z,7.64
2023-02-03T19:36:09.131Z,7.64
2023-02-03T19:38:35.928Z,7.63
2023-02-03T19:41:02.900Z,7.63
2023-02-03T19:43:33.608Z,7.62
2023-02-03T19:46:02.265Z,7.62
2023-02-03T19:48:28.842Z,7.63
2023-02-03T19:50:55.428Z,7.63
2023-02-03T19:53:24.236Z,7.62
2023-02-03T19:55:51.441Z,7.63
2023-02-03T19:58:18.223Z,7.64
2023-02-03T20:00:44.908Z,7.64
2023-02-03T20:03:11.485Z,7.64
2023-02-03T20:05:38.583Z,7.65
2023-02-03T20:08:05.812Z,7.65
2023-02-03T20:10:32.900Z,7.64
2023-02-03T20:12:59.981Z,7.63
2023-02-03T20:15:29.481Z,7.61
2023-02-03T20:17:56.092Z,7.60
2023-02-03T20:20:22.953Z,7.61
2023-02-03T20:22:49.952Z,7.61
2023-02-03T20:25:16.846Z,7.60
2023-02-03T20:27:43.508Z,7.59
2023-02-03T20:30:11.427Z,7.58
2023-02-03T20:32:38.637Z,7.59
2023-02-03T20:35:06.388Z,7.58
2023-02-03T20:37:33.077Z,7.56
2023-02-03T20:39:59.624Z,7.56
2023-02-03T20:42:26.166Z,7.57
2023-02-03T20:44:53.586Z,7.57
2023-02-03T20:47:22.232Z,7.59
2023-02-03T20:49:49.695Z,7.59
2023-02-03T20:52:19.717Z,7.57
2023-02-03T20:54:48.072Z,7.55
2023-02-03T20:57:17.371Z,7.57
2023-02-03T20:59:44.930Z,7.56
2023-02-03T21:02:22.849Z,7.56
2023-02-03T21:04:58.380Z,7.56
2023-02-03T21:07:29.166Z,7.56
2023-02-03T21:10:16.691Z,7.56
2023-02-03T21:12:43.182Z,7.57
2023-02-03T21:15:18.966Z,7.57
2023-02-03T21:17:45.423Z,7.59
2023-02-03T21:20:27.561Z,7.57
2023-02-03T21:22:55.413Z,7.57
2023-02-03T21:25:31.882Z,7.59
2023-02-03T21:28:00.095Z,7.56
2023-02-03T21:30:34.749Z,7.56
2023-02-03T21:33:24.986Z,7.56
2023-02-03T21:35:51.486Z,7.55
2023-02-03T21:38:33.023Z,7.56
2023-02-03T21:41:01.203Z,7.54
2023-02-03T21:43:32.996Z,7.55
2023-02-03T21:45:59.724Z,7.55
2023-02-03T21:48:34.382Z,7.56
2023-02-03T21:51:03.935Z,7.57
2023-02-03T21:53:35.475Z,7.61
2023-02-03T21:56:21.383Z,7.61
2023-02-03T21:58:50.828Z,7.57
2023-02-03T22:01:19.031Z,7.57
2023-02-03T22:03:59.813Z,7.57
2023-02-03T22:06:42.276Z,7.56
2023-02-03T22:09:14.754Z,7.56
2023-02-03T22:11:41.315Z,7.54
2023-02-03T22:14:07.936Z,7.52
2023-02-03T22:16:34.644Z,7.51
2023-02-03T22:19:01.163Z,7.48
2023-02-03T22:21:27.717Z,7.50
2023-02-03T22:23:54.457Z,7.48
2023-02-03T22:26:22.119Z,7.45
2023-02-03T22:28:48.638Z,7.44
2023-02-03T22:31:15.625Z,7.42
2023-02-03T22:33:42.999Z,7.40
2023-02-03T22:36:10.653Z,7.39
2023-02-03T22:38:38.317Z,7.37
2023-02-03T22:41:05.713Z,7.38
2023-02-03T22:43:32.431Z,7.36
2023-02-03T22:46:01.643Z,7.35
2023-02-03T22:48:28.918Z,7.37
2023-02-03T22:50:56.396Z,7.36
2023-02-03T22:53:22.936Z,7.32
2023-02-03T22:55:49.510Z,7.34
2023-02-03T22:58:15.982Z,7.33
2023-02-03T23:00:42.590Z,7.34
2023-02-03T23:03:09.247Z,7.32
2023-02-03T23:05:36.526Z,7.32
2023-02-03T23:08:03.127Z,7.33
2023-02-03T23:10:33.510Z,7.32
2023-02-03T23:13:00.753Z,7.30
2023-02-03T23:15:28.012Z,7.30
2023-02-03T23:17:54.697Z,7.28
2023-02-03T23:20:28.598Z,7.29
2023-02-03T23:22:55.250Z,7.27
2023-02-03T23:25:21.765Z,7.26
2023-02-03T23:27:48.334Z,7.27
2023-02-03T23:30:15.364Z,7.26
2023-02-03T23:32:43.060Z,7.27
2023-02-03T23:35:28.609Z,7.24
2023-02-03T23:37:55.255Z,7.25
2023-02-03T23:40:22.016Z,7.22
2023-02-03T23:42:48.561Z,7.21
2023-02-03T23:45:15.599Z,7.21
2023-02-03T23:47:43.984Z,7.22
2023-02-03T23:50:12.620Z,7.21
2023-02-03T23:52:39.127Z,7.20
2023-02-03T23:55:13.964Z,7.20
2023-02-03T23:57:42.730Z,7.21
